createdAt,value
2022-09-28T00:01:23.024Z,97176.80
2022-09-28T00:03:52.909Z,97177.40
2022-09-28T00:06:23.400Z,97169.40
2022-09-28T00:08:50.458Z,97168.00
2022-09-28T00:11:19.209Z,97170.40
2022-09-28T00:13:52.979Z,97168.60
2022-09-28T00:16:24.526Z,97157.40
2022-09-28T00:18:52.261Z,97160.20
2022-09-28T00:21:34.472Z,97159.40
2022-09-28T00:24:12.482Z,97157.00
2022-09-28T00:26:43.408Z,97153.00
2022-09-28T00:29:34.789Z,97159.00
2022-09-28T00:32:05.160Z,97163.00
2022-09-28T00:34:40.638Z,97159.20
2022-09-28T00:37:08.987Z,97161.60
2022-09-28T00:39:38.167Z,97161.40
2022-09-28T00:42:42.827Z,97158.80
2022-09-28T00:45:09.993Z,97160.40
2022-09-28T00:47:54.603Z,97158.20
2022-09-28T00:50:30.921Z,97158.40
2022-09-28T00:53:24.416Z,97159.80
2022-09-28T00:56:03.716Z,97161.60
2022-09-28T00:58:45.659Z,97163.60
2022-09-28T01:01:13.125Z,97169.80
2022-09-28T01:03:45.206Z,97167.60
2022-09-28T01:06:23.241Z,97164.00
2022-09-28T01:08:56.162Z,97164.00
2022-09-28T01:11:22.680Z,97159.40
2022-09-28T01:13:52.140Z,97167.00
2022-09-28T01:16:43.618Z,97159.60
2022-09-28T01:19:42.627Z,97157.20
2022-09-28T01:22:45.652Z,97151.40
2022-09-28T01:25:50.901Z,97154.60
2022-09-28T01:28:28.020Z,97160.00
2022-09-28T01:31:09.659Z,97150.60
2022-09-28T01:33:47.093Z,97148.60
2022-09-28T01:36:22.314Z,97148.40
2022-09-28T01:38:56.225Z,97147.00
2022-09-28T01:41:26.950Z,97151.60
2022-09-28T01:44:02.969Z,97149.60
2022-09-28T01:46:42.087Z,97148.80
2022-09-28T01:49:17.399Z,97154.40
2022-09-28T01:51:55.413Z,97151.20
2022-09-28T01:54:50.241Z,97154.20
2022-09-28T01:57:40.908Z,97147.40
2022-09-28T02:00:11.921Z,97154.00
2022-09-28T02:02:49.486Z,97151.00
2022-09-28T02:05:22.313Z,97148.20
2022-09-28T02:08:02.244Z,97149.60
2022-09-28T02:13:33.812Z,97153.60
2022-09-28T02:16:16.257Z,97154.20
2022-09-28T02:18:43.949Z,97153.80
2022-09-28T02:21:22.839Z,97150.20
2022-09-28T02:23:57.372Z,97152.00
2022-09-28T02:26:32.361Z,97158.60
2022-09-28T02:28:59.319Z,97153.80
2022-09-28T02:31:27.984Z,97156.40
2022-09-28T02:33:57.328Z,97157.80
2022-09-28T02:36:27.422Z,97159.40
2022-09-28T02:38:55.114Z,97157.60
2022-09-28T02:41:51.363Z,97158.60
2022-09-28T02:45:14.152Z,97169.80
2022-09-28T02:48:12.924Z,97159.20
2022-09-28T02:50:57.497Z,97158.60
2022-09-28T02:53:45.630Z,97162.20
2022-09-28T02:56:50.035Z,97156.00
2022-09-28T02:59:50.491Z,97152.00
2022-09-28T03:02:34.881Z,97153.40
2022-09-28T03:05:18.266Z,97152.20
2022-09-28T03:08:11.946Z,97162.80
2022-09-28T03:10:51.903Z,97163.40
2022-09-28T03:13:18.763Z,97176.20
2022-09-28T03:15:48.521Z,97181.00
2022-09-28T03:18:15.513Z,97184.20
2022-09-28T03:20:41.956Z,97189.80
2022-09-28T03:23:25.275Z,97188.00
2022-09-28T03:25:52.194Z,97188.80
2022-09-28T03:28:18.730Z,97190.80
2022-09-28T03:30:45.359Z,97190.80
2022-09-28T03:33:11.880Z,97191.00
2022-09-28T03:35:38.498Z,97192.40
2022-09-28T03:38:05.006Z,97188.40
2022-09-28T03:40:31.611Z,97185.00
2022-09-28T03:43:00.126Z,97183.40
2022-09-28T03:45:26.631Z,97184.40
2022-09-28T03:47:53.237Z,97189.40
2022-09-28T03:50:19.796Z,97187.40
2022-09-28T03:52:46.309Z,97186.60
2022-09-28T03:55:12.840Z,97185.20
2022-09-28T03:57:39.286Z,97186.80
2022-09-28T04:00:07.046Z,97185.80
2022-09-28T04:02:34.935Z,97188.40
2022-09-28T04:05:02.424Z,97185.80
2022-09-28T04:07:31.045Z,97187.40
2022-09-28T04:09:58.217Z,97188.80
2022-09-28T04:12:24.775Z,97187.00
2022-09-28T04:14:51.268Z,97186.60
2022-09-28T04:17:17.766Z,97188.80
2022-09-28T04:19:44.212Z,97188.40
2022-09-28T04:22:10.672Z,97192.00
2022-09-28T04:24:37.346Z,97189.80
2022-09-28T04:27:22.474Z,97185.20
2022-09-28T04:29:49.075Z,97183.40
2022-09-28T04:32:15.650Z,97181.20
2022-09-28T04:34:44.336Z,97182.40
2022-09-28T04:37:11.373Z,97180.80
2022-09-28T04:39:37.968Z,97178.60
2022-09-28T04:42:04.615Z,97174.80
2022-09-28T04:44:31.254Z,97170.20
2022-09-28T04:46:59.731Z,97173.80
2022-09-28T04:49:29.501Z,97172.40
2022-09-28T04:51:55.974Z,97172.60
2022-09-28T04:54:22.523Z,97179.80
2022-09-28T04:56:49.109Z,97182.20
2022-09-28T04:59:15.747Z,97184.40
2022-09-28T05:01:42.432Z,97186.60
2022-09-28T05:04:08.929Z,97192.80
2022-09-28T05:06:35.374Z,97187.00
2022-09-28T05:09:01.900Z,97184.00
2022-09-28T05:11:28.401Z,97186.60
2022-09-28T05:13:55.057Z,97185.80
2022-09-28T05:16:21.937Z,97188.60
2022-09-28T05:18:48.453Z,97189.80
2022-09-28T05:21:16.025Z,97201.00
2022-09-28T05:23:47.575Z,97198.80
2022-09-28T05:26:14.763Z,97201.80
2022-09-28T05:28:41.302Z,97198.80
2022-09-28T05:31:08.165Z,97198.00
2022-09-28T05:33:34.816Z,97197.20
2022-09-28T05:36:02.058Z,97197.80
2022-09-28T05:38:30.430Z,97193.80
2022-09-28T05:40:57.914Z,97194.80
2022-09-28T05:43:24.791Z,97192.20
2022-09-28T05:45:55.258Z,97197.40
2022-09-28T05:48:22.650Z,97201.20
2022-09-28T05:50:52.873Z,97199.60
2022-09-28T05:53:20.000Z,97198.60
2022-09-28T05:55:47.773Z,97196.60
2022-09-28T05:58:14.657Z,97194.00
2022-09-28T06:00:41.374Z,97194.00
2022-09-28T06:03:12.143Z,97192.80
2022-09-28T06:05:39.939Z,97198.40
2022-09-28T06:08:10.269Z,97194.60
2022-09-28T06:10:36.781Z,97197.80
2022-09-28T06:13:03.245Z,97193.40
2022-09-28T06:15:33.702Z,97190.00
2022-09-28T06:18:15.084Z,97189.20
2022-09-28T06:20:43.064Z,97185.60
2022-09-28T06:23:13.732Z,97188.00
2022-09-28T06:25:40.587Z,97190.20
2022-09-28T06:28:11.878Z,97191.20
2022-09-28T06:30:40.093Z,97187.00
2022-09-28T06:33:11.318Z,97186.20
2022-09-28T06:35:37.827Z,97188.20
2022-09-28T06:38:04.769Z,97191.80
2022-09-28T06:40:32.066Z,97192.60
2022-09-28T06:42:59.782Z,97196.40
2022-09-28T06:45:29.966Z,97196.40
2022-09-28T06:47:59.601Z,97195.20
2022-09-28T06:50:32.359Z,97194.60
2022-09-28T06:53:00.435Z,97195.40
2022-09-28T06:55:28.501Z,97193.00
2022-09-28T06:58:04.577Z,97196.40
2022-09-28T07:00:36.423Z,97198.00
2022-09-28T07:03:07.476Z,97200.60
2022-09-28T07:05:36.960Z,97201.20
2022-09-28T07:08:06.304Z,97205.60
2022-09-28T07:10:33.452Z,97205.40
2022-09-28T07:13:04.781Z,97207.20
2022-09-28T07:15:32.733Z,97210.00
2022-09-28T07:18:05.541Z,97205.20
2022-09-28T07:20:46.345Z,97209.00
2022-09-28T07:23:19.961Z,97208.40
2022-09-28T07:25:48.184Z,97214.20
2022-09-28T07:28:17.753Z,97211.80
2022-09-28T07:30:44.767Z,97211.80
2022-09-28T07:33:15.040Z,97210.20
2022-09-28T07:35:42.944Z,97206.40
2022-09-28T07:38:11.383Z,97206.20
2022-09-28T07:40:57.023Z,97204.00
2022-09-28T07:43:23.681Z,97200.80
2022-09-28T07:45:54.046Z,97203.80
2022-09-28T07:48:21.943Z,97198.40
2022-09-28T07:50:52.464Z,97201.40
2022-09-28T07:53:21.757Z,97200.60
2022-09-28T07:56:05.673Z,97203.60
2022-09-28T07:58:33.126Z,97202.80
2022-09-28T08:01:06.148Z,97202.80
2022-09-28T08:03:33.110Z,97201.80
2022-09-28T08:06:01.921Z,97199.60
2022-09-28T08:08:30.108Z,97204.00
2022-09-28T08:10:59.354Z,97197.40
2022-09-28T08:13:27.155Z,97193.80
2022-09-28T08:15:54.704Z,97201.40
2022-09-28T08:18:21.412Z,97196.20
2022-09-28T08:21:06.884Z,97191.20
2022-09-28T08:23:33.359Z,97184.80
2022-09-28T08:25:59.852Z,97188.60
2022-09-28T08:28:26.640Z,97191.60
2022-09-28T08:30:54.307Z,97190.60
2022-09-28T08:33:21.711Z,97188.20
2022-09-28T08:35:56.541Z,97195.80
2022-09-28T08:38:24.615Z,97196.40
2022-09-28T08:41:28.844Z,97192.80
2022-09-28T08:44:13.798Z,97192.40
2022-09-28T08:46:47.893Z,97189.80
2022-09-28T08:49:34.979Z,97190.60
2022-09-28T08:52:20.603Z,97185.20
2022-09-28T08:55:07.186Z,97187.60
2022-09-28T08:58:15.007Z,97191.40
2022-09-28T09:00:51.215Z,97188.60
2022-09-28T09:03:23.885Z,97186.00
2022-09-28T09:06:30.194Z,97189.40
2022-09-28T09:09:15.381Z,97190.20
2022-09-28T09:12:04.647Z,97190.20
2022-09-28T09:15:28.463Z,97188.00
2022-09-28T09:18:28.491Z,97188.40
2022-09-28T09:21:13.909Z,97188.40
2022-09-28T09:23:56.010Z,97186.60
2022-09-28T09:26:39.386Z,97186.40
2022-09-28T09:29:33.379Z,97191.60
2022-09-28T09:32:36.253Z,97188.00
2022-09-28T09:35:44.189Z,97189.60
2022-09-28T09:38:56.161Z,97181.40
2022-09-28T09:41:43.309Z,97184.40
2022-09-28T09:44:39.217Z,97192.40
2022-09-28T09:47:14.835Z,97185.80
2022-09-28T09:49:56.537Z,97189.80
2022-09-28T09:52:46.444Z,97187.00
2022-09-28T09:55:30.310Z,97183.60
2022-09-28T09:58:29.850Z,97176.20
2022-09-28T10:01:07.773Z,97181.60
2022-09-28T10:03:42.314Z,97177.00
2022-09-28T10:06:20.197Z,97175.20
2022-09-28T10:09:03.925Z,97182.80
2022-09-28T10:11:42.218Z,97185.00
2022-09-28T10:14:16.998Z,97189.40
2022-09-28T10:16:48.038Z,97195.60
2022-09-28T10:19:18.503Z,97188.80
2022-09-28T10:21:50.312Z,97193.40
2022-09-28T10:24:45.620Z,97192.60
2022-09-28T10:27:21.096Z,97196.00
2022-09-28T10:30:00.702Z,97188.40
2022-09-28T10:32:38.604Z,97191.60
2022-09-28T10:35:27.132Z,97192.00
2022-09-28T10:38:14.365Z,97190.20
2022-09-28T10:40:45.494Z,97187.00
2022-09-28T10:43:33.550Z,97185.20
2022-09-28T10:46:09.452Z,97183.00
2022-09-28T10:49:00.841Z,97183.20
2022-09-28T10:51:51.743Z,97179.60
2022-09-28T10:54:25.610Z,97171.80
2022-09-28T10:56:55.305Z,97171.80
2022-09-28T10:59:40.084Z,97176.20
2022-09-28T11:02:36.229Z,97185.80
2022-09-28T11:05:07.137Z,97189.20
2022-09-28T11:07:46.527Z,97195.60
2022-09-28T11:10:29.661Z,97196.20
2022-09-28T11:12:57.689Z,97192.20
2022-09-28T11:15:32.105Z,97195.20
2022-09-28T11:18:31.480Z,97192.40
2022-09-28T11:21:17.890Z,97196.60
2022-09-28T11:24:06.429Z,97188.60
2022-09-28T11:26:40.763Z,97191.80
2022-09-28T11:29:20.935Z,97194.60
2022-09-28T11:31:47.943Z,97198.20
2022-09-28T11:34:36.463Z,97201.20
2022-09-28T11:37:37.970Z,97193.80
2022-09-28T11:40:33.839Z,97190.40
2022-09-28T11:43:41.395Z,97187.00
2022-09-28T11:46:40.039Z,97188.40
2022-09-28T11:49:33.389Z,97187.00
2022-09-28T11:52:13.301Z,97183.40
2022-09-28T11:55:01.250Z,97181.20
2022-09-28T11:57:36.684Z,97185.80
2022-09-28T12:00:15.802Z,97185.60
2022-09-28T12:03:07.138Z,97184.80
2022-09-28T12:05:41.697Z,97184.60
2022-09-28T12:08:30.367Z,97179.80
2022-09-28T12:11:09.844Z,97180.80
2022-09-28T12:13:47.786Z,97179.20
2022-09-28T12:19:32.134Z,97179.60
2022-09-28T12:22:13.736Z,97181.20
2022-09-28T12:24:46.042Z,97177.40
2022-09-28T12:27:40.071Z,97179.20
2022-09-28T12:30:19.849Z,97177.20
2022-09-28T12:33:06.819Z,97173.00
2022-09-28T12:35:50.723Z,97172.20
2022-09-28T12:39:18.173Z,97171.00
2022-09-28T12:42:35.306Z,97176.60
2022-09-28T12:45:21.934Z,97170.60
2022-09-28T12:48:23.754Z,97172.60
2022-09-28T12:51:22.803Z,97171.60
2022-09-28T12:54:25.217Z,97174.80
2022-09-28T12:57:29.866Z,97176.40
2022-09-28T13:00:08.431Z,97174.00
2022-09-28T13:03:19.296Z,97179.80
2022-09-28T13:06:40.030Z,97176.40
2022-09-28T13:09:22.678Z,97166.80
2022-09-28T13:12:24.828Z,97160.80
2022-09-28T13:15:15.773Z,97153.80
2022-09-28T13:17:53.390Z,97151.20
2022-09-28T13:20:57.111Z,97145.40
2022-09-28T13:23:45.248Z,97138.00
2022-09-28T13:26:37.863Z,97141.60
2022-09-28T13:29:16.686Z,97138.60
2022-09-28T13:31:53.751Z,97135.60
2022-09-28T13:34:26.308Z,97140.40
2022-09-28T13:37:16.807Z,97144.80
2022-09-28T13:39:46.249Z,97144.60
2022-09-28T13:42:27.165Z,97141.80
2022-09-28T13:45:32.799Z,97142.60
2022-09-28T13:48:17.323Z,97136.00
2022-09-28T13:51:06.928Z,97141.60
2022-09-28T13:54:15.778Z,97144.20
2022-09-28T13:57:18.342Z,97147.80
2022-09-28T14:00:10.722Z,97143.40
2022-09-28T14:02:41.119Z,97151.00
2022-09-28T14:05:22.561Z,97150.00
2022-09-28T14:08:19.600Z,97171.00
2022-09-28T14:11:17.212Z,97183.20
2022-09-28T14:13:43.957Z,97172.20
2022-09-28T14:16:31.047Z,97172.40
2022-09-28T14:19:26.647Z,97162.00
2022-09-28T14:22:09.471Z,97158.00
2022-09-28T14:25:27.584Z,97160.20
2022-09-28T14:28:18.955Z,97157.40
2022-09-28T14:30:54.405Z,97157.80
2022-09-28T14:33:20.782Z,97155.80
2022-09-28T14:36:03.934Z,97156.80
2022-09-28T14:38:53.440Z,97152.00
2022-09-28T14:41:34.422Z,97148.00
2022-09-28T14:44:10.738Z,97145.40
2022-09-28T14:46:46.135Z,97151.80
2022-09-28T14:49:19.623Z,97153.60
2022-09-28T14:52:02.601Z,97145.20
2022-09-28T14:54:52.475Z,97144.40
2022-09-28T14:57:25.474Z,97145.60
2022-09-28T14:59:52.181Z,97142.80
2022-09-28T15:02:32.281Z,97142.20
2022-09-28T15:05:23.870Z,97144.00
2022-09-28T15:07:53.468Z,97140.80
2022-09-28T15:10:31.943Z,97139.20
2022-09-28T15:13:06.744Z,97144.20
2022-09-28T15:15:38.716Z,97141.40
2022-09-28T15:18:51.377Z,97142.20
2022-09-28T15:21:18.912Z,97149.60
2022-09-28T15:23:46.823Z,97145.40
2022-09-28T15:26:28.445Z,97146.20
2022-09-28T15:28:55.900Z,97145.80
2022-09-28T15:31:26.723Z,97150.80
2022-09-28T15:34:12.365Z,97144.60
2022-09-28T15:36:43.032Z,97154.20
2022-09-28T15:39:17.849Z,97149.40
2022-09-28T15:41:47.601Z,97157.80
2022-09-28T15:44:29.420Z,97155.00
2022-09-28T15:47:19.216Z,97155.00
2022-09-28T15:50:21.318Z,97149.80
2022-09-28T15:53:01.105Z,97143.80
2022-09-28T15:55:36.968Z,97146.00
2022-09-28T15:58:20.217Z,97142.40
2022-09-28T16:01:12.129Z,97138.80
2022-09-28T16:03:38.685Z,97145.00
2022-09-28T16:06:09.545Z,97151.60
2022-09-28T16:08:36.027Z,97152.20
2022-09-28T16:11:24.365Z,97149.60
2022-09-28T16:14:07.945Z,97155.80
2022-09-28T16:16:42.168Z,97154.20
2022-09-28T16:19:38.249Z,97156.00
2022-09-28T16:22:19.980Z,97157.80
2022-09-28T16:24:58.095Z,97162.80
2022-09-28T16:27:38.898Z,97158.40
2022-09-28T16:30:59.427Z,97160.80
2022-09-28T16:33:39.592Z,97171.60
2022-09-28T16:36:14.258Z,97178.60
2022-09-28T16:38:44.985Z,97186.00
2022-09-28T16:41:13.788Z,97191.40
2022-09-28T16:43:40.574Z,97195.00
2022-09-28T16:46:15.954Z,97206.20
2022-09-28T16:48:48.679Z,97203.00
2022-09-28T16:51:21.070Z,97201.80
2022-09-28T16:54:06.891Z,97200.80
2022-09-28T16:56:36.198Z,97200.20
2022-09-28T16:59:03.829Z,97202.80
2022-09-28T17:01:31.342Z,97202.20
2022-09-28T17:03:57.922Z,97204.80
2022-09-28T17:06:25.323Z,97199.20
2022-09-28T17:08:52.481Z,97196.80
2022-09-28T17:11:24.587Z,97198.20
2022-09-28T17:13:52.147Z,97195.80
2022-09-28T17:16:36.803Z,97200.40
2022-09-28T17:19:24.099Z,97196.40
2022-09-28T17:21:52.489Z,97191.00
2022-09-28T17:24:19.830Z,97192.40
2022-09-28T17:26:50.883Z,97193.80
2022-09-28T17:29:18.631Z,97188.60
2022-09-28T17:31:46.813Z,97184.60
2022-09-28T17:34:16.248Z,97188.40
2022-09-28T17:36:44.197Z,97184.20
2022-09-28T17:39:14.648Z,97180.80
2022-09-28T17:41:41.231Z,97188.40
2022-09-28T17:44:08.126Z,97190.20
2022-09-28T17:46:39.662Z,97187.80
2022-09-28T17:49:11.504Z,97179.00
2022-09-28T17:51:38.629Z,97175.00
2022-09-28T17:54:07.995Z,97173.00
2022-09-28T17:56:35.325Z,97170.20
2022-09-28T17:59:10.186Z,97178.60
2022-09-28T18:01:39.836Z,97172.40
2022-09-28T18:04:09.438Z,97176.40
2022-09-28T18:06:39.314Z,97175.80
2022-09-28T18:09:05.848Z,97178.20
2022-09-28T18:11:33.535Z,97172.40
2022-09-28T18:14:00.599Z,97174.60
2022-09-28T18:16:28.718Z,97177.80
2022-09-28T18:18:55.431Z,97177.80
2022-09-28T18:21:21.987Z,97177.80
2022-09-28T18:23:48.511Z,97176.80
2022-09-28T18:26:16.785Z,97183.60
2022-09-28T18:28:43.383Z,97186.20
2022-09-28T18:31:13.222Z,97178.20
2022-09-28T18:33:40.812Z,97181.40
2022-09-28T18:36:08.397Z,97180.60
2022-09-28T18:38:36.333Z,97177.80
2022-09-28T18:41:14.416Z,97183.00
2022-09-28T18:43:42.717Z,97182.80
2022-09-28T18:46:11.386Z,97181.80
2022-09-28T18:48:40.422Z,97176.00
2022-09-28T18:51:12.247Z,97171.20
2022-09-28T18:53:40.242Z,97177.00
2022-09-28T18:56:18.188Z,97179.00
2022-09-28T18:58:46.914Z,97183.00
2022-09-28T19:01:33.508Z,97179.40
2022-09-28T19:04:06.875Z,97182.40
2022-09-28T19:06:36.986Z,97186.40
2022-09-28T19:09:03.983Z,97197.40
2022-09-28T19:11:30.438Z,97197.00
2022-09-28T19:13:56.985Z,97199.80
2022-09-28T19:16:30.834Z,97198.40
2022-09-28T19:19:00.941Z,97196.60
2022-09-28T19:21:27.527Z,97197.00
2022-09-28T19:23:55.627Z,97202.80
2022-09-28T19:26:26.177Z,97206.40
2022-09-28T19:28:54.108Z,97214.40
2022-09-28T19:31:22.895Z,97210.60
2022-09-28T19:33:50.028Z,97212.20
2022-09-28T19:36:21.816Z,97216.40
2022-09-28T19:38:48.297Z,97221.60
2022-09-28T19:41:44.841Z,97222.20
2022-09-28T19:44:27.747Z,97223.20
2022-09-28T19:46:58.491Z,97226.80
2022-09-28T19:49:27.879Z,97225.80
2022-09-28T19:52:12.033Z,97227.80
2022-09-28T19:54:39.667Z,97228.00
2022-09-28T19:57:08.527Z,97227.40
2022-09-28T19:59:37.431Z,97231.60
2022-09-28T20:02:06.632Z,97232.20
2022-09-28T20:04:33.253Z,97230.80
2022-09-28T20:06:59.998Z,97233.80
2022-09-28T20:09:26.428Z,97235.00
2022-09-28T20:11:53.202Z,97237.20
2022-09-28T20:14:20.163Z,97236.40
2022-09-28T20:16:47.993Z,97237.20
2022-09-28T20:19:15.009Z,97240.80
2022-09-28T20:21:41.553Z,97246.00
2022-09-28T20:24:10.243Z,97249.40
2022-09-28T20:26:37.833Z,97245.40
2022-09-28T20:29:07.341Z,97243.00
2022-09-28T20:31:38.860Z,97247.60
2022-09-28T20:34:06.959Z,97247.40
2022-09-28T20:36:34.189Z,97249.20
2022-09-28T20:39:02.294Z,97247.40
2022-09-28T20:41:36.790Z,97247.80
2022-09-28T20:44:06.653Z,97251.20
2022-09-28T20:46:37.509Z,97248.60
2022-09-28T20:49:05.594Z,97253.80
2022-09-28T20:51:32.733Z,97255.00
2022-09-28T20:54:00.115Z,97254.40
2022-09-28T20:56:31.402Z,97255.60
2022-09-28T20:58:57.995Z,97243.00
2022-09-28T21:01:30.525Z,97246.00
2022-09-28T21:04:02.742Z,97253.40
2022-09-28T21:06:36.564Z,97260.20
2022-09-28T21:09:05.343Z,97259.60
2022-09-28T21:11:33.047Z,97258.00
2022-09-28T21:14:02.400Z,97258.60
2022-09-28T21:16:32.326Z,97272.00
2022-09-28T21:18:59.253Z,97278.20
2022-09-28T21:21:26.800Z,97275.40
2022-09-28T21:23:57.496Z,97276.00
2022-09-28T21:26:27.729Z,97283.80
2022-09-28T21:29:10.272Z,97289.20
2022-09-28T21:31:45.509Z,97295.80
2022-09-28T21:34:20.610Z,97291.80
2022-09-28T21:36:51.118Z,97290.40
2022-09-28T21:39:19.424Z,97282.40
2022-09-28T21:41:46.346Z,97283.80
2022-09-28T21:44:12.931Z,97287.80
2022-09-28T21:46:39.714Z,97294.80
2022-09-28T21:49:08.440Z,97298.00
2022-09-28T21:51:35.949Z,97295.20
2022-09-28T21:54:02.466Z,97288.60
2022-09-28T21:56:28.987Z,97293.00
2022-09-28T21:58:55.459Z,97294.40
2022-09-28T22:01:25.578Z,97292.80
2022-09-28T22:03:56.770Z,97293.40
2022-09-28T22:06:29.618Z,97297.80
2022-09-28T22:08:57.034Z,97304.60
2022-09-28T22:11:28.719Z,97304.80
2022-09-28T22:13:59.440Z,97309.80
2022-09-28T22:16:29.946Z,97310.80
2022-09-28T22:18:58.327Z,97311.60
2022-09-28T22:21:32.599Z,97305.80
2022-09-28T22:24:06.465Z,97313.60
2022-09-28T22:26:35.803Z,97313.80
2022-09-28T22:29:06.579Z,97311.00
2022-09-28T22:31:40.105Z,97318.00
2022-09-28T22:34:07.936Z,97333.40
2022-09-28T22:36:35.012Z,97334.20
2022-09-28T22:39:01.625Z,97332.40
2022-09-28T22:41:28.412Z,97330.60
2022-09-28T22:43:55.437Z,97334.60
2022-09-28T22:46:25.784Z,97330.80
2022-09-28T22:48:55.444Z,97325.40
2022-09-28T22:51:24.117Z,97327.20
2022-09-28T22:53:50.744Z,97332.20
2022-09-28T22:56:18.997Z,97332.60
2022-09-28T22:58:46.763Z,97344.00
2022-09-28T23:01:18.611Z,97344.80
2022-09-28T23:03:45.871Z,97344.20
2022-09-28T23:06:16.579Z,97343.60
2022-09-28T23:08:45.273Z,97345.40
2022-09-28T23:11:11.808Z,97348.60
2022-09-28T23:13:38.515Z,97351.20
2022-09-28T23:16:09.209Z,97351.00
2022-09-28T23:18:40.888Z,97352.40
2022-09-28T23:21:16.147Z,97357.60
2022-09-28T23:23:44.952Z,97352.60
2022-09-28T23:26:21.334Z,97345.80
2022-09-28T23:28:48.297Z,97342.00
2022-09-28T23:31:30.666Z,97348.00
2022-09-28T23:34:04.887Z,97347.20
2022-09-28T23:36:32.578Z,97349.60
2022-09-28T23:38:59.221Z,97351.00
2022-09-28T23:41:25.733Z,97348.40
2022-09-28T23:43:52.198Z,97347.00
2022-09-28T23:46:20.946Z,97353.60
2022-09-28T23:48:48.605Z,97352.20
2022-09-28T23:51:15.259Z,97348.40
2022-09-28T23:53:41.707Z,97354.40
2022-09-28T23:56:08.258Z,97353.40
2022-09-28T23:58:34.745Z,97355.40
